sensor_id;sensor_type;location;lat;lon;timestamp;pressure;altitude;pressure_sealevel;temperature
12007;BMP180;6062;47.294;12.182;2023-03-19T00:00:06;80078.00;;;7.50
12007;BMP180;6062;47.294;12.182;2023-03-19T00:02:33;80071.00;;;7.60
12007;BMP180;6062;47.294;12.182;2023-03-19T00:04:59;80076.00;;;7.60
12007;BMP180;6062;47.294;12.182;2023-03-19T00:07:25;80073.00;;;7.60
12007;BMP180;6062;47.294;12.182;2023-03-19T00:09:51;80082.00;;;7.60
12007;BMP180;6062;47.294;12.182;2023-03-19T00:12:17;80087.00;;;7.60
12007;BMP180;6062;47.294;12.182;2023-03-19T00:14:43;80080.00;;;7.60
12007;BMP180;6062;47.294;12.182;2023-03-19T00:17:08;80089.00;;;7.60
12007;BMP180;6062;47.294;12.182;2023-03-19T00:19:34;80090.00;;;7.60
12007;BMP180;6062;47.294;12.182;2023-03-19T00:22:00;80094.00;;;7.60
12007;BMP180;6062;47.294;12.182;2023-03-19T00:24:26;80090.00;;;7.60
12007;BMP180;6062;47.294;12.182;2023-03-19T00:26:53;80083.00;;;7.60
12007;BMP180;6062;47.294;12.182;2023-03-19T00:29:19;80088.00;;;7.60
12007;BMP180;6062;47.294;12.182;2023-03-19T00:31:45;80087.00;;;7.60
12007;BMP180;6062;47.294;12.182;2023-03-19T00:34:11;80092.00;;;7.60
12007;BMP180;6062;47.294;12.182;2023-03-19T00:36:37;80083.00;;;7.70
12007;BMP180;6062;47.294;12.182;2023-03-19T00:39:04;80095.00;;;7.70
12007;BMP180;6062;47.294;12.182;2023-03-19T00:41:31;80078.00;;;7.70
12007;BMP180;6062;47.294;12.182;2023-03-19T00:43:57;80094.00;;;7.70
12007;BMP180;6062;47.294;12.182;2023-03-19T00:46:24;80094.00;;;7.70
12007;BMP180;6062;47.294;12.182;2023-03-19T00:48:50;80083.00;;;7.70
12007;BMP180;6062;47.294;12.182;2023-03-19T00:51:21;80078.00;;;7.60
12007;BMP180;6062;47.294;12.182;2023-03-19T00:53:48;80081.00;;;7.60
12007;BMP180;6062;47.294;12.182;2023-03-19T00:56:15;80088.00;;;7.60
12007;BMP180;6062;47.294;12.182;2023-03-19T00:58:43;80088.00;;;7.60
12007;BMP180;6062;47.294;12.182;2023-03-19T01:01:12;80072.00;;;7.60
12007;BMP180;6062;47.294;12.182;2023-03-19T01:03:38;80075.00;;;7.50
12007;BMP180;6062;47.294;12.182;2023-03-19T01:06:05;80071.00;;;7.50
12007;BMP180;6062;47.294;12.182;2023-03-19T01:08:32;80073.00;;;7.50
12007;BMP180;6062;47.294;12.182;2023-03-19T01:11:13;80073.00;;;7.60
12007;BMP180;6062;47.294;12.182;2023-03-19T01:13:40;80069.00;;;7.50
12007;BMP180;6062;47.294;12.182;2023-03-19T01:16:07;80068.00;;;7.50
12007;BMP180;6062;47.294;12.182;2023-03-19T01:18:33;80070.00;;;7.50
12007;BMP180;6062;47.294;12.182;2023-03-19T01:20:59;80069.00;;;7.50
12007;BMP180;6062;47.294;12.182;2023-03-19T01:23:25;80071.00;;;7.50
12007;BMP180;6062;47.294;12.182;2023-03-19T01:25:51;80066.00;;;7.50
12007;BMP180;6062;47.294;12.182;2023-03-19T01:28:17;80061.00;;;7.50
12007;BMP180;6062;47.294;12.182;2023-03-19T01:30:43;80061.00;;;7.50
12007;BMP180;6062;47.294;12.182;2023-03-19T01:33:09;80069.00;;;7.60
12007;BMP180;6062;47.294;12.182;2023-03-19T01:35:35;80064.00;;;7.60
12007;BMP180;6062;47.294;12.182;2023-03-19T01:38:01;80062.00;;;7.60
12007;BMP180;6062;47.294;12.182;2023-03-19T01:40:27;80062.00;;;7.60
12007;BMP180;6062;47.294;12.182;2023-03-19T01:45:41;80062.00;;;7.70
12007;BMP180;6062;47.294;12.182;2023-03-19T01:48:22;80066.00;;;7.70
12007;BMP180;6062;47.294;12.182;2023-03-19T01:50:52;80067.00;;;7.80
12007;BMP180;6062;47.294;12.182;2023-03-19T01:53:25;80069.00;;;7.80
12007;BMP180;6062;47.294;12.182;2023-03-19T01:55:58;80066.00;;;7.80
12007;BMP180;6062;47.294;12.182;2023-03-19T01:58:28;80064.00;;;7.80
12007;BMP180;6062;47.294;12.182;2023-03-19T02:00:54;80064.00;;;7.80
12007;BMP180;6062;47.294;12.182;2023-03-19T02:03:20;80066.00;;;7.80
12007;BMP180;6062;47.294;12.182;2023-03-19T02:05:48;80065.00;;;7.80
12007;BMP180;6062;47.294;12.182;2023-03-19T02:08:18;80062.00;;;7.80
12007;BMP180;6062;47.294;12.182;2023-03-19T02:10:46;80065.00;;;7.80
12007;BMP180;6062;47.294;12.182;2023-03-19T02:13:12;80060.00;;;7.80
12007;BMP180;6062;47.294;12.182;2023-03-19T02:15:39;80066.00;;;7.80
12007;BMP180;6062;47.294;12.182;2023-03-19T02:18:06;80057.00;;;7.80
12007;BMP180;6062;47.294;12.182;2023-03-19T02:23:08;80056.00;;;7.80
12007;BMP180;6062;47.294;12.182;2023-03-19T02:28:15;80056.00;;;7.90
12007;BMP180;6062;47.294;12.182;2023-03-19T02:30:43;80063.00;;;7.90
12007;BMP180;6062;47.294;12.182;2023-03-19T02:33:16;80059.00;;;7.90
12007;BMP180;6062;47.294;12.182;2023-03-19T02:35:45;80059.00;;;7.90
12007;BMP180;6062;47.294;12.182;2023-03-19T02:38:13;80072.00;;;7.90
12007;BMP180;6062;47.294;12.182;2023-03-19T02:40:48;80067.00;;;7.80
12007;BMP180;6062;47.294;12.182;2023-03-19T02:43:15;80072.00;;;7.80
12007;BMP180;6062;47.294;12.182;2023-03-19T02:45:41;80069.00;;;7.80
12007;BMP180;6062;47.294;12.182;2023-03-19T02:48:07;80063.00;;;7.80
12007;BMP180;6062;47.294;12.182;2023-03-19T02:50:33;80074.00;;;7.80
12007;BMP180;6062;47.294;12.182;2023-03-19T02:52:58;80074.00;;;7.80
12007;BMP180;6062;47.294;12.182;2023-03-19T02:55:24;80075.00;;;7.80
12007;BMP180;6062;47.294;12.182;2023-03-19T02:57:50;80075.00;;;7.80
12007;BMP180;6062;47.294;12.182;2023-03-19T03:00:16;80071.00;;;7.80
12007;BMP180;6062;47.294;12.182;2023-03-19T03:02:43;80064.00;;;7.80
12007;BMP180;6062;47.294;12.182;2023-03-19T03:05:09;80070.00;;;7.80
12007;BMP180;6062;47.294;12.182;2023-03-19T03:07:35;80077.00;;;7.80
12007;BMP180;6062;47.294;12.182;2023-03-19T03:10:01;80064.00;;;7.80
12007;BMP180;6062;47.294;12.182;2023-03-19T03:12:26;80070.00;;;7.70
12007;BMP180;6062;47.294;12.182;2023-03-19T03:14:52;80062.00;;;7.70
12007;BMP180;6062;47.294;12.182;2023-03-19T03:17:18;80062.00;;;7.70
12007;BMP180;6062;47.294;12.182;2023-03-19T03:19:43;80062.00;;;7.70
12007;BMP180;6062;47.294;12.182;2023-03-19T03:22:09;80059.00;;;7.70
12007;BMP180;6062;47.294;12.182;2023-03-19T03:24:35;80059.00;;;7.70
12007;BMP180;6062;47.294;12.182;2023-03-19T03:27:01;80060.00;;;7.70
12007;BMP180;6062;47.294;12.182;2023-03-19T03:29:27;80065.00;;;7.70
12007;BMP180;6062;47.294;12.182;2023-03-19T03:31:52;80059.00;;;7.70
12007;BMP180;6062;47.294;12.182;2023-03-19T03:34:18;80059.00;;;7.70
12007;BMP180;6062;47.294;12.182;2023-03-19T03:36:44;80072.00;;;7.70
12007;BMP180;6062;47.294;12.182;2023-03-19T03:39:11;80078.00;;;7.70
12007;BMP180;6062;47.294;12.182;2023-03-19T03:41:38;80068.00;;;7.60
12007;BMP180;6062;47.294;12.182;2023-03-19T03:44:04;80065.00;;;7.70
12007;BMP180;6062;47.294;12.182;2023-03-19T03:46:30;80065.00;;;7.70
12007;BMP180;6062;47.294;12.182;2023-03-19T03:48:56;80058.00;;;7.70
12007;BMP180;6062;47.294;12.182;2023-03-19T03:51:21;80058.00;;;7.80
12007;BMP180;6062;47.294;12.182;2023-03-19T03:53:47;80062.00;;;7.80
12007;BMP180;6062;47.294;12.182;2023-03-19T03:56:13;80076.00;;;7.80
12007;BMP180;6062;47.294;12.182;2023-03-19T03:58:39;80076.00;;;7.80
12007;BMP180;6062;47.294;12.182;2023-03-19T04:01:05;80069.00;;;7.80
12007;BMP180;6062;47.294;12.182;2023-03-19T04:03:32;80065.00;;;7.80
12007;BMP180;6062;47.294;12.182;2023-03-19T04:05:58;80073.00;;;7.80
12007;BMP180;6062;47.294;12.182;2023-03-19T04:08:24;80064.00;;;7.80
12007;BMP180;6062;47.294;12.182;2023-03-19T04:10:49;80060.00;;;7.70
12007;BMP180;6062;47.294;12.182;2023-03-19T04:13:15;80067.00;;;7.70
12007;BMP180;6062;47.294;12.182;2023-03-19T04:15:44;80069.00;;;7.60
12007;BMP180;6062;47.294;12.182;2023-03-19T04:18:11;80068.00;;;7.60
12007;BMP180;6062;47.294;12.182;2023-03-19T04:20:36;80074.00;;;7.60
12007;BMP180;6062;47.294;12.182;2023-03-19T04:23:02;80069.00;;;7.60
12007;BMP180;6062;47.294;12.182;2023-03-19T04:25:28;80071.00;;;7.50
12007;BMP180;6062;47.294;12.182;2023-03-19T04:27:57;80076.00;;;7.50
12007;BMP180;6062;47.294;12.182;2023-03-19T04:30:23;80078.00;;;7.50
12007;BMP180;6062;47.294;12.182;2023-03-19T04:32:49;80072.00;;;7.50
12007;BMP180;6062;47.294;12.182;2023-03-19T04:35:15;80081.00;;;7.40
12007;BMP180;6062;47.294;12.182;2023-03-19T04:37:42;80080.00;;;7.40
12007;BMP180;6062;47.294;12.182;2023-03-19T04:40:14;80079.00;;;7.40
12007;BMP180;6062;47.294;12.182;2023-03-19T04:42:40;80079.00;;;7.40
12007;BMP180;6062;47.294;12.182;2023-03-19T04:45:06;80080.00;;;7.40
12007;BMP180;6062;47.294;12.182;2023-03-19T04:47:32;80081.00;;;7.40
12007;BMP180;6062;47.294;12.182;2023-03-19T04:49:58;80079.00;;;7.40
12007;BMP180;6062;47.294;12.182;2023-03-19T04:52:24;80094.00;;;7.40
12007;BMP180;6062;47.294;12.182;2023-03-19T04:54:49;80079.00;;;7.40
12007;BMP180;6062;47.294;12.182;2023-03-19T04:57:15;80086.00;;;7.40
12007;BMP180;6062;47.294;12.182;2023-03-19T04:59:41;80095.00;;;7.30
12007;BMP180;6062;47.294;12.182;2023-03-19T05:02:07;80088.00;;;7.30
12007;BMP180;6062;47.294;12.182;2023-03-19T05:04:33;80093.00;;;7.20
12007;BMP180;6062;47.294;12.182;2023-03-19T05:06:58;80091.00;;;7.20
12007;BMP180;6062;47.294;12.182;2023-03-19T05:09:24;80093.00;;;7.20
12007;BMP180;6062;47.294;12.182;2023-03-19T05:11:50;80095.00;;;7.20
12007;BMP180;6062;47.294;12.182;2023-03-19T05:14:16;80093.00;;;7.20
12007;BMP180;6062;47.294;12.182;2023-03-19T05:16:42;80089.00;;;7.20
12007;BMP180;6062;47.294;12.182;2023-03-19T05:19:07;80087.00;;;7.10
12007;BMP180;6062;47.294;12.182;2023-03-19T05:21:33;80093.00;;;7.10
12007;BMP180;6062;47.294;12.182;2023-03-19T05:23:59;80096.00;;;7.10
12007;BMP180;6062;47.294;12.182;2023-03-19T05:26:24;80094.00;;;7.00
12007;BMP180;6062;47.294;12.182;2023-03-19T05:28:50;80090.00;;;7.00
12007;BMP180;6062;47.294;12.182;2023-03-19T05:31:16;80087.00;;;7.00
12007;BMP180;6062;47.294;12.182;2023-03-19T05:33:42;80087.00;;;7.00
12007;BMP180;6062;47.294;12.182;2023-03-19T05:36:07;80090.00;;;6.90
12007;BMP180;6062;47.294;12.182;2023-03-19T05:38:33;80089.00;;;6.90
12007;BMP180;6062;47.294;12.182;2023-03-19T05:41:04;80098.00;;;6.80
12007;BMP180;6062;47.294;12.182;2023-03-19T05:43:30;80102.00;;;6.70
12007;BMP180;6062;47.294;12.182;2023-03-19T05:45:56;80102.00;;;6.70
12007;BMP180;6062;47.294;12.182;2023-03-19T05:48:22;80106.00;;;6.70
12007;BMP180;6062;47.294;12.182;2023-03-19T05:50:48;80112.00;;;6.70
12007;BMP180;6062;47.294;12.182;2023-03-19T05:53:13;80110.00;;;6.70
12007;BMP180;6062;47.294;12.182;2023-03-19T05:55:39;80116.00;;;6.80
12007;BMP180;6062;47.294;12.182;2023-03-19T05:58:05;80109.00;;;6.90
12007;BMP180;6062;47.294;12.182;2023-03-19T06:00:32;80122.00;;;7.00
12007;BMP180;6062;47.294;12.182;2023-03-19T06:02:58;80115.00;;;7.10
12007;BMP180;6062;47.294;12.182;2023-03-19T06:05:24;80119.00;;;7.30
12007;BMP180;6062;47.294;12.182;2023-03-19T06:07:49;80115.00;;;7.50
12007;BMP180;6062;47.294;12.182;2023-03-19T06:10:15;80109.00;;;7.70
12007;BMP180;6062;47.294;12.182;2023-03-19T06:12:41;80117.00;;;8.00
12007;BMP180;6062;47.294;12.182;2023-03-19T06:15:08;80114.00;;;8.20
12007;BMP180;6062;47.294;12.182;2023-03-19T06:17:35;80122.00;;;8.40
12007;BMP180;6062;47.294;12.182;2023-03-19T06:20:00;80129.00;;;8.60
12007;BMP180;6062;47.294;12.182;2023-03-19T06:22:26;80132.00;;;8.80
12007;BMP180;6062;47.294;12.182;2023-03-19T06:24:52;80121.00;;;9.10
12007;BMP180;6062;47.294;12.182;2023-03-19T06:27:18;80140.00;;;9.40
12007;BMP180;6062;47.294;12.182;2023-03-19T06:29:43;80138.00;;;9.70
12007;BMP180;6062;47.294;12.182;2023-03-19T06:32:09;80143.00;;;10.00
12007;BMP180;6062;47.294;12.182;2023-03-19T06:34:36;80139.00;;;10.40
12007;BMP180;6062;47.294;12.182;2023-03-19T06:37:02;80140.00;;;10.70
12007;BMP180;6062;47.294;12.182;2023-03-19T06:39:27;80141.00;;;11.00
12007;BMP180;6062;47.294;12.182;2023-03-19T06:41:53;80143.00;;;11.40
12007;BMP180;6062;47.294;12.182;2023-03-19T06:44:19;80151.00;;;11.70
12007;BMP180;6062;47.294;12.182;2023-03-19T06:46:44;80148.00;;;11.90
12007;BMP180;6062;47.294;12.182;2023-03-19T06:49:10;80149.00;;;12.20
12007;BMP180;6062;47.294;12.182;2023-03-19T06:51:36;80154.00;;;12.40
12007;BMP180;6062;47.294;12.182;2023-03-19T06:54:02;80152.00;;;12.60
12007;BMP180;6062;47.294;12.182;2023-03-19T06:56:28;80162.00;;;13.00
12007;BMP180;6062;47.294;12.182;2023-03-19T06:58:54;80163.00;;;13.50
12007;BMP180;6062;47.294;12.182;2023-03-19T07:01:20;80167.00;;;14.00
12007;BMP180;6062;47.294;12.182;2023-03-19T07:03:46;80170.00;;;14.30
12007;BMP180;6062;47.294;12.182;2023-03-19T07:06:12;80169.00;;;14.80
12007;BMP180;6062;47.294;12.182;2023-03-19T07:08:38;80166.00;;;15.30
12007;BMP180;6062;47.294;12.182;2023-03-19T07:11:06;80172.00;;;15.80
12007;BMP180;6062;47.294;12.182;2023-03-19T07:13:32;80181.00;;;16.50
12007;BMP180;6062;47.294;12.182;2023-03-19T07:15:59;80182.00;;;17.20
12007;BMP180;6062;47.294;12.182;2023-03-19T07:18:25;80177.00;;;17.80
12007;BMP180;6062;47.294;12.182;2023-03-19T07:20:51;80178.00;;;18.20
12007;BMP180;6062;47.294;12.182;2023-03-19T07:23:20;80180.00;;;18.70
12007;BMP180;6062;47.294;12.182;2023-03-19T07:25:46;80185.00;;;19.10
12007;BMP180;6062;47.294;12.182;2023-03-19T07:28:12;80198.00;;;19.60
12007;BMP180;6062;47.294;12.182;2023-03-19T07:30:38;80204.00;;;20.20
12007;BMP180;6062;47.294;12.182;2023-03-19T07:33:06;80194.00;;;20.90
12007;BMP180;6062;47.294;12.182;2023-03-19T07:35:33;80192.00;;;21.60
12007;BMP180;6062;47.294;12.182;2023-03-19T07:37:59;80196.00;;;22.20
12007;BMP180;6062;47.294;12.182;2023-03-19T07:40:27;80192.00;;;22.50
12007;BMP180;6062;47.294;12.182;2023-03-19T07:42:52;80191.00;;;22.60
12007;BMP180;6062;47.294;12.182;2023-03-19T07:45:18;80207.00;;;22.60
12007;BMP180;6062;47.294;12.182;2023-03-19T07:47:44;80203.00;;;22.70
12007;BMP180;6062;47.294;12.182;2023-03-19T07:50:10;80209.00;;;22.80
12007;BMP180;6062;47.294;12.182;2023-03-19T07:52:36;80210.00;;;22.90
12007;BMP180;6062;47.294;12.182;2023-03-19T07:55:02;80212.00;;;23.00
12007;BMP180;6062;47.294;12.182;2023-03-19T07:57:28;80216.00;;;22.70
12007;BMP180;6062;47.294;12.182;2023-03-19T07:59:54;80222.00;;;22.10
12007;BMP180;6062;47.294;12.182;2023-03-19T08:02:19;80228.00;;;21.50
12007;BMP180;6062;47.294;12.182;2023-03-19T08:04:45;80225.00;;;20.90
12007;BMP180;6062;47.294;12.182;2023-03-19T08:07:11;80232.00;;;20.40
12007;BMP180;6062;47.294;12.182;2023-03-19T08:09:37;80230.00;;;19.90
12007;BMP180;6062;47.294;12.182;2023-03-19T08:12:05;80231.00;;;19.40
12007;BMP180;6062;47.294;12.182;2023-03-19T08:14:32;80222.00;;;19.00
12007;BMP180;6062;47.294;12.182;2023-03-19T08:16:58;80211.00;;;18.70
12007;BMP180;6062;47.294;12.182;2023-03-19T08:19:24;80209.00;;;18.70
12007;BMP180;6062;47.294;12.182;2023-03-19T08:21:49;80215.00;;;18.90
12007;BMP180;6062;47.294;12.182;2023-03-19T08:24:16;80208.00;;;19.20
12007;BMP180;6062;47.294;12.182;2023-03-19T08:26:42;80217.00;;;19.30
12007;BMP180;6062;47.294;12.182;2023-03-19T08:29:07;80213.00;;;19.30
12007;BMP180;6062;47.294;12.182;2023-03-19T08:31:34;80211.00;;;19.10
12007;BMP180;6062;47.294;12.182;2023-03-19T08:34:01;80215.00;;;19.20
12007;BMP180;6062;47.294;12.182;2023-03-19T08:36:30;80219.00;;;19.50
12007;BMP180;6062;47.294;12.182;2023-03-19T08:38:56;80216.00;;;20.10
12007;BMP180;6062;47.294;12.182;2023-03-19T08:41:24;80228.00;;;20.50
12007;BMP180;6062;47.294;12.182;2023-03-19T08:43:50;80222.00;;;20.70
12007;BMP180;6062;47.294;12.182;2023-03-19T08:46:16;80223.00;;;20.90
12007;BMP180;6062;47.294;12.182;2023-03-19T08:48:42;80224.00;;;21.20
12007;BMP180;6062;47.294;12.182;2023-03-19T08:51:09;80221.00;;;21.50
12007;BMP180;6062;47.294;12.182;2023-03-19T08:53:36;80225.00;;;21.60
12007;BMP180;6062;47.294;12.182;2023-03-19T08:56:04;80232.00;;;21.40
12007;BMP180;6062;47.294;12.182;2023-03-19T08:58:31;80233.00;;;21.20
12007;BMP180;6062;47.294;12.182;2023-03-19T09:03:28;80237.00;;;21.40
12007;BMP180;6062;47.294;12.182;2023-03-19T09:05:58;80231.00;;;21.50
12007;BMP180;6062;47.294;12.182;2023-03-19T09:08:25;80235.00;;;21.60
12007;BMP180;6062;47.294;12.182;2023-03-19T09:10:51;80236.00;;;21.50
12007;BMP180;6062;47.294;12.182;2023-03-19T09:13:16;80233.00;;;21.20
12007;BMP180;6062;47.294;12.182;2023-03-19T09:15:42;80236.00;;;21.10
12007;BMP180;6062;47.294;12.182;2023-03-19T09:18:08;80236.00;;;21.10
12007;BMP180;6062;47.294;12.182;2023-03-19T09:20:33;80235.00;;;21.10
12007;BMP180;6062;47.294;12.182;2023-03-19T09:22:59;80240.00;;;21.00
12007;BMP180;6062;47.294;12.182;2023-03-19T09:25:25;80238.00;;;20.90
12007;BMP180;6062;47.294;12.182;2023-03-19T09:27:50;80241.00;;;20.90
12007;BMP180;6062;47.294;12.182;2023-03-19T09:30:16;80235.00;;;20.90
12007;BMP180;6062;47.294;12.182;2023-03-19T09:32:42;80245.00;;;21.00
12007;BMP180;6062;47.294;12.182;2023-03-19T09:35:08;80244.00;;;21.00
12007;BMP180;6062;47.294;12.182;2023-03-19T09:37:34;80243.00;;;21.00
12007;BMP180;6062;47.294;12.182;2023-03-19T09:40:00;80247.00;;;20.80
12007;BMP180;6062;47.294;12.182;2023-03-19T09:45:33;80247.00;;;19.80
12007;BMP180;6062;47.294;12.182;2023-03-19T09:48:12;80244.00;;;19.20
12007;BMP180;6062;47.294;12.182;2023-03-19T09:50:39;80237.00;;;18.70
12007;BMP180;6062;47.294;12.182;2023-03-19T09:53:29;80230.00;;;18.40
12007;BMP180;6062;47.294;12.182;2023-03-19T09:55:59;80239.00;;;18.30
12007;BMP180;6062;47.294;12.182;2023-03-19T09:58:34;80245.00;;;18.10
12007;BMP180;6062;47.294;12.182;2023-03-19T10:01:01;80236.00;;;18.10
12007;BMP180;6062;47.294;12.182;2023-03-19T10:03:45;80244.00;;;18.10
12007;BMP180;6062;47.294;12.182;2023-03-19T10:12:41;80226.00;;;17.90
12007;BMP180;6062;47.294;12.182;2023-03-19T10:15:31;80234.00;;;17.30
12007;BMP180;6062;47.294;12.182;2023-03-19T10:18:18;80232.00;;;16.80
12007;BMP180;6062;47.294;12.182;2023-03-19T10:20:50;80229.00;;;16.50
12007;BMP180;6062;47.294;12.182;2023-03-19T10:23:46;80229.00;;;16.30
12007;BMP180;6062;47.294;12.182;2023-03-19T10:26:27;80227.00;;;16.10
12007;BMP180;6062;47.294;12.182;2023-03-19T10:29:10;80231.00;;;16.00
12007;BMP180;6062;47.294;12.182;2023-03-19T10:32:09;80225.00;;;15.70
12007;BMP180;6062;47.294;12.182;2023-03-19T10:34:44;80229.00;;;15.50
12007;BMP180;6062;47.294;12.182;2023-03-19T10:39:50;80213.00;;;15.70
12007;BMP180;6062;47.294;12.182;2023-03-19T10:45:32;80220.00;;;15.80
12007;BMP180;6062;47.294;12.182;2023-03-19T10:48:01;80217.00;;;15.70
12007;BMP180;6062;47.294;12.182;2023-03-19T10:55:47;80218.00;;;15.90
12007;BMP180;6062;47.294;12.182;2023-03-19T10:58:19;80221.00;;;16.00
12007;BMP180;6062;47.294;12.182;2023-03-19T11:00:55;80215.00;;;16.00
12007;BMP180;6062;47.294;12.182;2023-03-19T11:03:55;80214.00;;;16.00
12007;BMP180;6062;47.294;12.182;2023-03-19T11:06:28;80216.00;;;16.10
12007;BMP180;6062;47.294;12.182;2023-03-19T11:08:58;80223.00;;;16.10
12007;BMP180;6062;47.294;12.182;2023-03-19T11:11:33;80225.00;;;16.20
12007;BMP180;6062;47.294;12.182;2023-03-19T11:14:13;80222.00;;;16.40
12007;BMP180;6062;47.294;12.182;2023-03-19T11:20:18;80204.00;;;16.80
12007;BMP180;6062;47.294;12.182;2023-03-19T11:22:45;80209.00;;;16.90
12007;BMP180;6062;47.294;12.182;2023-03-19T11:25:29;80209.00;;;17.00
12007;BMP180;6062;47.294;12.182;2023-03-19T11:31:14;80203.00;;;17.00
12007;BMP180;6062;47.294;12.182;2023-03-19T11:34:30;80217.00;;;16.70
12007;BMP180;6062;47.294;12.182;2023-03-19T11:40:27;80211.00;;;15.60
12007;BMP180;6062;47.294;12.182;2023-03-19T11:43:21;80216.00;;;15.10
12007;BMP180;6062;47.294;12.182;2023-03-19T11:49:23;80207.00;;;14.30
12007;BMP180;6062;47.294;12.182;2023-03-19T11:54:51;80196.00;;;13.90
12007;BMP180;6062;47.294;12.182;2023-03-19T11:57:41;80196.00;;;13.80
12007;BMP180;6062;47.294;12.182;2023-03-19T12:00:29;80187.00;;;13.60
12007;BMP180;6062;47.294;12.182;2023-03-19T12:05:52;80185.00;;;13.30
12007;BMP180;6062;47.294;12.182;2023-03-19T12:08:48;80180.00;;;13.10
12007;BMP180;6062;47.294;12.182;2023-03-19T12:14:36;80180.00;;;12.50
12007;BMP180;6062;47.294;12.182;2023-03-19T12:20:29;80171.00;;;12.20
12007;BMP180;6062;47.294;12.182;2023-03-19T12:25:48;80165.00;;;12.30
12007;BMP180;6062;47.294;12.182;2023-03-19T12:28:25;80163.00;;;12.20
12007;BMP180;6062;47.294;12.182;2023-03-19T12:36:02;80164.00;;;11.80
12007;BMP180;6062;47.294;12.182;2023-03-19T12:41:23;80151.00;;;12.00
12007;BMP180;6062;47.294;12.182;2023-03-19T12:49:14;80148.00;;;12.00
12007;BMP180;6062;47.294;12.182;2023-03-19T12:51:46;80161.00;;;11.90
12007;BMP180;6062;47.294;12.182;2023-03-19T12:54:21;80157.00;;;11.90
12007;BMP180;6062;47.294;12.182;2023-03-19T12:57:05;80157.00;;;11.90
12007;BMP180;6062;47.294;12.182;2023-03-19T13:02:50;80152.00;;;12.20
12007;BMP180;6062;47.294;12.182;2023-03-19T13:05:28;80158.00;;;12.40
12007;BMP180;6062;47.294;12.182;2023-03-19T13:08:34;80152.00;;;12.70
12007;BMP180;6062;47.294;12.182;2023-03-19T13:11:10;80154.00;;;13.00
12007;BMP180;6062;47.294;12.182;2023-03-19T13:13:48;80157.00;;;13.20
12007;BMP180;6062;47.294;12.182;2023-03-19T13:16:45;80162.00;;;13.40
12007;BMP180;6062;47.294;12.182;2023-03-19T13:19:48;80159.00;;;13.60
12007;BMP180;6062;47.294;12.182;2023-03-19T13:22:23;80159.00;;;13.70
12007;BMP180;6062;47.294;12.182;2023-03-19T13:24:51;80159.00;;;13.90
12007;BMP180;6062;47.294;12.182;2023-03-19T13:27:30;80161.00;;;14.10
12007;BMP180;6062;47.294;12.182;2023-03-19T13:33:01;80163.00;;;14.50
12007;BMP180;6062;47.294;12.182;2023-03-19T13:35:39;80162.00;;;14.70
12007;BMP180;6062;47.294;12.182;2023-03-19T13:38:23;80164.00;;;14.80
12007;BMP180;6062;47.294;12.182;2023-03-19T13:40:56;80168.00;;;14.90
12007;BMP180;6062;47.294;12.182;2023-03-19T13:51:04;80153.00;;;15.00
12007;BMP180;6062;47.294;12.182;2023-03-19T13:56:03;80149.00;;;15.00
12007;BMP180;6062;47.294;12.182;2023-03-19T13:58:52;80155.00;;;15.00
12007;BMP180;6062;47.294;12.182;2023-03-19T14:04:00;80146.00;;;15.00
12007;BMP180;6062;47.294;12.182;2023-03-19T14:08:59;80148.00;;;15.00
12007;BMP180;6062;47.294;12.182;2023-03-19T14:11:35;80143.00;;;14.90
12007;BMP180;6062;47.294;12.182;2023-03-19T14:14:05;80150.00;;;14.70
12007;BMP180;6062;47.294;12.182;2023-03-19T14:16:40;80140.00;;;14.50
12007;BMP180;6062;47.294;12.182;2023-03-19T14:19:16;80143.00;;;14.30
12007;BMP180;6062;47.294;12.182;2023-03-19T14:22:08;80139.00;;;14.30
12007;BMP180;6062;47.294;12.182;2023-03-19T14:24:38;80138.00;;;14.20
12007;BMP180;6062;47.294;12.182;2023-03-19T14:27:26;80140.00;;;14.20
12007;BMP180;6062;47.294;12.182;2023-03-19T14:29:57;80133.00;;;14.10
12007;BMP180;6062;47.294;12.182;2023-03-19T14:32:34;80140.00;;;14.00
12007;BMP180;6062;47.294;12.182;2023-03-19T14:35:06;80141.00;;;13.80
12007;BMP180;6062;47.294;12.182;2023-03-19T14:37:48;80138.00;;;13.60
12007;BMP180;6062;47.294;12.182;2023-03-19T14:40:31;80139.00;;;13.40
12007;BMP180;6062;47.294;12.182;2023-03-19T14:43:12;80137.00;;;13.10
12007;BMP180;6062;47.294;12.182;2023-03-19T14:45:59;80134.00;;;13.00
12007;BMP180;6062;47.294;12.182;2023-03-19T14:51:48;80132.00;;;12.80
12007;BMP180;6062;47.294;12.182;2023-03-19T14:54:58;80135.00;;;12.80
12007;BMP180;6062;47.294;12.182;2023-03-19T14:57:34;80138.00;;;12.70
12007;BMP180;6062;47.294;12.182;2023-03-19T15:00:03;80133.00;;;12.70
12007;BMP180;6062;47.294;12.182;2023-03-19T15:02:51;80136.00;;;12.70
12007;BMP180;6062;47.294;12.182;2023-03-19T15:05:29;80127.00;;;12.70
12007;BMP180;6062;47.294;12.182;2023-03-19T15:08:02;80138.00;;;12.70
12007;BMP180;6062;47.294;12.182;2023-03-19T15:10:37;80136.00;;;12.70
12007;BMP180;6062;47.294;12.182;2023-03-19T15:13:51;80134.00;;;12.70
12007;BMP180;6062;47.294;12.182;2023-03-19T15:19:23;80128.00;;;12.20
12007;BMP180;6062;47.294;12.182;2023-03-19T15:21:50;80131.00;;;11.90
12007;BMP180;6062;47.294;12.182;2023-03-19T15:24:17;80135.00;;;11.60
12007;BMP180;6062;47.294;12.182;2023-03-19T15:26:44;80139.00;;;11.40
12007;BMP180;6062;47.294;12.182;2023-03-19T15:29:10;80148.00;;;11.20
12007;BMP180;6062;47.294;12.182;2023-03-19T15:31:46;80144.00;;;11.10
12007;BMP180;6062;47.294;12.182;2023-03-19T15:34:21;80149.00;;;11.10
12007;BMP180;6062;47.294;12.182;2023-03-19T15:37:00;80143.00;;;11.10
12007;BMP180;6062;47.294;12.182;2023-03-19T15:39:34;80130.00;;;11.10
12007;BMP180;6062;47.294;12.182;2023-03-19T15:42:04;80141.00;;;11.00
12007;BMP180;6062;47.294;12.182;2023-03-19T15:44:38;80146.00;;;10.90
12007;BMP180;6062;47.294;12.182;2023-03-19T15:47:10;80141.00;;;10.80
12007;BMP180;6062;47.294;12.182;2023-03-19T15:49:43;80144.00;;;10.70
12007;BMP180;6062;47.294;12.182;2023-03-19T15:52:15;80146.00;;;10.70
12007;BMP180;6062;47.294;12.182;2023-03-19T15:54:42;80149.00;;;10.70
12007;BMP180;6062;47.294;12.182;2023-03-19T15:57:11;80149.00;;;10.70
12007;BMP180;6062;47.294;12.182;2023-03-19T15:59:39;80150.00;;;10.60
12007;BMP180;6062;47.294;12.182;2023-03-19T16:02:30;80154.00;;;10.60
12007;BMP180;6062;47.294;12.182;2023-03-19T16:04:59;80148.00;;;10.50
12007;BMP180;6062;47.294;12.182;2023-03-19T16:08:16;80158.00;;;10.50
12007;BMP180;6062;47.294;12.182;2023-03-19T16:10:42;80161.00;;;10.40